SIA279 WSSS-YPAD
Flight info
| Callsign | SIA279 |
|---|---|
| Flight time | N/A |
| Altitude | 35000 |
| Route | KIRDA1A KIRDA W26 PKP L511 BOPLO T20 BRM/N0485F370 G222 AYE T29 WR J251 OJJAY DCT BUGSU |
| Aircraft | B77W/H-SDE1E2E3FGHIJ2J3J4J5M1RWXY/LB1D1 |
Departure
| Time | 2026-05-05 12:44 |
|---|---|
| Airport | Singapore Changi Airport (WSSS) |
Arrival
| Time | N/A |
|---|---|
| Airport | Adelaide International Airport (YPAD) |
| Time | Latitude | Longitude | Altitude | Speed | Heading |
|---|---|---|---|---|---|
| 2026-05-05 12:15 | 1.35781 | 103.99397 | 37 ft | 0 kts | 192° |
| 2026-05-05 12:28 | 1.35787 | 103.99398 | 37 ft | 4 kts | 192° |
| 2026-05-05 12:28 | 1.35813 | 103.99404 | 35 ft | 4 kts | 192° |
| 2026-05-05 12:28 | 1.35835 | 103.99408 | 35 ft | 4 kts | 189° |
| 2026-05-05 12:28 | 1.35859 | 103.99410 | 36 ft | 4 kts | 165° |
| 2026-05-05 12:29 | 1.35879 | 103.99400 | 33 ft | 4 kts | 135° |
| 2026-05-05 12:29 | 1.35895 | 103.99380 | 35 ft | 4 kts | 116° |
| 2026-05-05 12:29 | 1.35903 | 103.99361 | 34 ft | 0 kts | 112° |
| 2026-05-05 12:32 | 1.35882 | 103.99411 | 35 ft | 14 kts | 112° |
| 2026-05-05 12:32 | 1.35844 | 103.99501 | 37 ft | 12 kts | 115° |
| 2026-05-05 12:32 | 1.35779 | 103.99518 | 37 ft | 11 kts | 199° |
| 2026-05-05 12:33 | 1.35691 | 103.99484 | 37 ft | 21 kts | 202° |
| 2026-05-05 12:33 | 1.35486 | 103.99398 | 38 ft | 41 kts | 203° |
| 2026-05-05 12:33 | 1.35241 | 103.99297 | 37 ft | 34 kts | 202° |
| 2026-05-05 12:33 | 1.35030 | 103.99208 | 41 ft | 32 kts | 202° |
| 2026-05-05 12:34 | 1.34831 | 103.99124 | 37 ft | 30 kts | 202° |
| 2026-05-05 12:34 | 1.34639 | 103.99044 | 38 ft | 30 kts | 202° |
| 2026-05-05 12:34 | 1.34446 | 103.98963 | 38 ft | 30 kts | 202° |
| 2026-05-05 12:34 | 1.34254 | 103.98882 | 38 ft | 30 kts | 202° |
| 2026-05-05 12:35 | 1.34061 | 103.98802 | 38 ft | 30 kts | 202° |
| 2026-05-05 12:35 | 1.33869 | 103.98722 | 37 ft | 30 kts | 202° |
| 2026-05-05 12:35 | 1.33679 | 103.98642 | 37 ft | 30 kts | 202° |
| 2026-05-05 12:35 | 1.33489 | 103.98561 | 37 ft | 21 kts | 202° |
| 2026-05-05 12:36 | 1.33363 | 103.98509 | 37 ft | 17 kts | 202° |
| 2026-05-05 12:36 | 1.33285 | 103.98476 | 37 ft | 17 kts | 202° |
| 2026-05-05 12:36 | 1.33223 | 103.98450 | 37 ft | 2 kts | 202° |
| 2026-05-05 12:36 | 1.33208 | 103.98444 | 37 ft | 2 kts | 202° |
| 2026-05-05 12:37 | 1.33193 | 103.98438 | 37 ft | 2 kts | 202° |
| 2026-05-05 12:37 | 1.33179 | 103.98432 | 38 ft | 2 kts | 202° |
| 2026-05-05 12:37 | 1.33164 | 103.98426 | 38 ft | 2 kts | 202° |
| 2026-05-05 12:37 | 1.33149 | 103.98419 | 38 ft | 3 kts | 202° |
| 2026-05-05 12:38 | 1.33119 | 103.98407 | 38 ft | 7 kts | 202° |
| 2026-05-05 12:38 | 1.33074 | 103.98388 | 37 ft | 7 kts | 202° |
| 2026-05-05 12:38 | 1.33046 | 103.98377 | 37 ft | 0 kts | 202° |
| 2026-05-05 12:39 | 1.33028 | 103.98369 | 37 ft | 8 kts | 202° |
| 2026-05-05 12:39 | 1.32976 | 103.98359 | 37 ft | 7 kts | 164° |
| 2026-05-05 12:40 | 1.32954 | 103.98379 | 37 ft | 0 kts | 121° |
| 2026-05-05 12:42 | 1.32945 | 103.98397 | 37 ft | 11 kts | 116° |
| 2026-05-05 12:42 | 1.32911 | 103.98474 | 37 ft | 11 kts | 111° |
| 2026-05-05 12:42 | 1.32929 | 103.98521 | 37 ft | 8 kts | 33° |
| 2026-05-05 12:43 | 1.32941 | 103.98526 | 37 ft | 0 kts | 22° |
| 2026-05-05 12:43 | 1.32943 | 103.98526 | 37 ft | 4 kts | 22° |
| 2026-05-05 12:43 | 1.33073 | 103.98581 | 38 ft | 44 kts | 23° |
| 2026-05-05 12:43 | 1.33593 | 103.98801 | 35 ft | 116 kts | 23° |
| 2026-05-05 12:44 | 1.34530 | 103.99194 | 38 ft | 174 kts | 23° |
| 2026-05-05 12:44 | 1.35758 | 103.99721 | 242 ft | 199 kts | 23° |
| 2026-05-05 12:44 | 1.37012 | 104.00299 | 862 ft | 200 kts | 25° |
| 2026-05-05 12:44 | 1.38293 | 104.00848 | 1529 ft | 201 kts | 22° |
| 2026-05-05 12:45 | 1.39620 | 104.01386 | 1944 ft | 216 kts | 22° |
| 2026-05-05 12:45 | 1.41089 | 104.01987 | 2163 ft | 241 kts | 23° |
| 2026-05-05 12:45 | 1.42662 | 104.02638 | 2603 ft | 254 kts | 23° |
| 2026-05-05 12:45 | 1.44330 | 104.03332 | 3216 ft | 263 kts | 23° |
| 2026-05-05 12:46 | 1.46024 | 104.04067 | 3877 ft | 267 kts | 30° |
| 2026-05-05 12:46 | 1.47381 | 104.05338 | 4463 ft | 273 kts | 60° |
| 2026-05-05 12:46 | 1.47922 | 104.07146 | 5206 ft | 275 kts | 89° |
| 2026-05-05 12:46 | 1.47610 | 104.09024 | 5926 ft | 276 kts | 111° |
| 2026-05-05 12:47 | 1.46814 | 104.10786 | 6515 ft | 282 kts | 115° |
| 2026-05-05 12:47 | 1.45962 | 104.12563 | 7196 ft | 284 kts | 115° |
| 2026-05-05 12:47 | 1.45112 | 104.14351 | 7923 ft | 285 kts | 115° |
| 2026-05-05 12:47 | 1.44263 | 104.16154 | 8613 ft | 288 kts | 115° |
| 2026-05-05 12:48 | 1.43410 | 104.17978 | 9274 ft | 291 kts | 115° |
| 2026-05-05 12:48 | 1.42563 | 104.19800 | 9907 ft | 294 kts | 115° |
| 2026-05-05 12:48 | 1.41694 | 104.21676 | 10432 ft | 303 kts | 115° |
| 2026-05-05 12:48 | 1.40773 | 104.23667 | 10603 ft | 327 kts | 115° |
| 2026-05-05 12:49 | 1.39788 | 104.25799 | 10770 ft | 349 kts | 115° |
| 2026-05-05 12:49 | 1.38736 | 104.28073 | 10954 ft | 371 kts | 115° |
| 2026-05-05 12:49 | 1.37636 | 104.30452 | 11438 ft | 382 kts | 115° |
| 2026-05-05 12:49 | 1.36514 | 104.32879 | 12092 ft | 388 kts | 114° |
| 2026-05-05 12:50 | 1.35377 | 104.35339 | 12910 ft | 391 kts | 114° |
| 2026-05-05 12:50 | 1.34202 | 104.37794 | 13646 ft | 390 kts | 119° |
| 2026-05-05 12:50 | 1.32443 | 104.39885 | 14121 ft | 400 kts | 141° |
| 2026-05-05 12:50 | 1.30037 | 104.41301 | 14843 ft | 403 kts | 158° |
| 2026-05-05 12:51 | 1.27347 | 104.42092 | 15414 ft | 407 kts | 165° |
| 2026-05-05 12:51 | 1.24570 | 104.42763 | 15957 ft | 413 kts | 166° |
| 2026-05-05 12:51 | 1.21760 | 104.43433 | 16593 ft | 417 kts | 165° |
| 2026-05-05 12:51 | 1.18933 | 104.44125 | 17255 ft | 420 kts | 165° |
| 2026-05-05 12:52 | 1.16124 | 104.44836 | 17886 ft | 424 kts | 164° |
| 2026-05-05 12:52 | 1.13254 | 104.45575 | 18435 ft | 428 kts | 164° |
| 2026-05-05 12:52 | 1.10354 | 104.46329 | 18947 ft | 432 kts | 164° |
| 2026-05-05 12:52 | 1.07442 | 104.47121 | 19465 ft | 435 kts | 163° |
| 2026-05-05 12:53 | 1.04513 | 104.47939 | 19984 ft | 438 kts | 163° |
| 2026-05-05 12:53 | 1.01557 | 104.48770 | 20502 ft | 442 kts | 163° |
| 2026-05-05 12:53 | 0.98584 | 104.49606 | 21002 ft | 446 kts | 163° |
| 2026-05-05 12:53 | 0.95584 | 104.50445 | 21494 ft | 449 kts | 163° |
| 2026-05-05 12:54 | 0.89514 | 104.52136 | 22450 ft | 456 kts | 163° |
| 2026-05-05 12:54 | 0.86446 | 104.52988 | 22920 ft | 460 kts | 163° |
| 2026-05-05 12:54 | 0.83346 | 104.53849 | 23381 ft | 463 kts | 163° |
| 2026-05-05 12:55 | 0.80272 | 104.54704 | 23757 ft | 466 kts | 163° |
| 2026-05-05 12:55 | 0.77136 | 104.55575 | 24147 ft | 469 kts | 163° |
| 2026-05-05 12:55 | 0.73981 | 104.56451 | 24548 ft | 471 kts | 163° |
| 2026-05-05 12:55 | 0.70815 | 104.57331 | 24934 ft | 473 kts | 163° |
| 2026-05-05 12:56 | 0.67633 | 104.58215 | 25311 ft | 476 kts | 163° |
| 2026-05-05 12:56 | 0.64443 | 104.59111 | 25677 ft | 478 kts | 162° |
| 2026-05-05 12:56 | 0.61238 | 104.60056 | 26040 ft | 481 kts | 162° |
| 2026-05-05 12:56 | 0.58023 | 104.61024 | 26402 ft | 483 kts | 162° |
| 2026-05-05 12:57 | 0.54796 | 104.61998 | 26755 ft | 485 kts | 162° |
| 2026-05-05 12:57 | 0.51552 | 104.62969 | 27101 ft | 488 kts | 162° |
| 2026-05-05 12:57 | 0.48287 | 104.63941 | 27462 ft | 490 kts | 162° |
| 2026-05-05 12:57 | 0.45020 | 104.64910 | 27819 ft | 491 kts | 162° |
| 2026-05-05 12:58 | 0.41730 | 104.65884 | 28153 ft | 493 kts | 162° |
| 2026-05-05 12:58 | 0.38434 | 104.66859 | 28463 ft | 496 kts | 162° |
| 2026-05-05 12:58 | 0.35159 | 104.67827 | 28748 ft | 498 kts | 162° |
| 2026-05-05 12:58 | 0.31831 | 104.68813 | 29043 ft | 500 kts | 162° |
| 2026-05-05 12:59 | 0.28494 | 104.69801 | 29343 ft | 501 kts | 162° |
| 2026-05-05 12:59 | 0.25142 | 104.70794 | 29649 ft | 503 kts | 162° |
| 2026-05-05 12:59 | 0.21784 | 104.71789 | 29918 ft | 504 kts | 162° |
| 2026-05-05 13:00 | 0.15397 | 104.74501 | 30321 ft | 501 kts | 141° |
| 2026-05-05 13:00 | 0.12908 | 104.76909 | 30616 ft | 498 kts | 127° |
| 2026-05-05 13:01 | 0.07831 | 104.85876 | 31494 ft | 494 kts | 118° |
| 2026-05-05 13:01 | 0.06171 | 104.88873 | 31856 ft | 493 kts | 118° |
| 2026-05-05 13:01 | 0.04485 | 104.91850 | 32220 ft | 491 kts | 119° |
| 2026-05-05 13:01 | 0.02798 | 104.94806 | 32574 ft | 490 kts | 119° |